createdAt,value
2019-05-23T00:00:04.790Z,0.00
2019-05-23T00:01:04.844Z,0.00
2019-05-23T00:02:57.847Z,0.00
2019-05-23T00:03:57.886Z,0.00
2019-05-23T00:05:50.884Z,0.00
2019-05-23T00:06:50.931Z,0.00
2019-05-23T00:08:43.912Z,0.00
2019-05-23T00:09:43.963Z,0.00
2019-05-23T00:11:39.820Z,0.00
2019-05-23T00:12:37.011Z,0.00
2019-05-23T00:14:29.990Z,0.00
2019-05-23T00:15:30.050Z,0.00
2019-05-23T00:17:23.069Z,0.00
2019-05-23T00:18:23.090Z,0.00
2019-05-23T00:20:16.073Z,0.00
2019-05-23T00:21:16.131Z,0.00
2019-05-23T00:23:09.144Z,0.00
2019-05-23T00:24:09.172Z,0.00
2019-05-23T00:26:02.153Z,0.00
2019-05-23T00:27:02.211Z,0.00
2019-05-23T00:29:09.019Z,0.00
2019-05-23T00:29:55.250Z,0.00
2019-05-23T00:31:48.258Z,0.00
2019-05-23T00:32:48.295Z,0.00
2019-05-23T00:34:41.275Z,0.00
2019-05-23T00:35:41.332Z,0.00
2019-05-23T00:37:34.345Z,0.00
2019-05-23T00:38:34.364Z,0.00
2019-05-23T00:40:27.350Z,0.00
2019-05-23T00:41:27.408Z,0.00
2019-05-23T00:43:20.425Z,0.00
2019-05-23T00:44:20.454Z,0.00
2019-05-23T00:46:13.430Z,0.00
2019-05-23T00:47:13.489Z,0.00
2019-05-23T00:49:06.490Z,0.00
2019-05-23T00:50:06.531Z,0.00
2019-05-23T00:51:59.551Z,0.00
2019-05-23T00:52:59.575Z,0.00
2019-05-23T00:54:52.557Z,0.00
2019-05-23T00:55:52.618Z,0.00
2019-05-23T00:57:46.145Z,0.00
2019-05-23T00:58:46.194Z,0.00
2019-05-23T01:00:39.171Z,0.00
2019-05-23T01:01:39.203Z,0.00
2019-05-23T01:03:32.201Z,0.00
2019-05-23T01:04:32.248Z,0.00
2019-05-23T01:06:25.251Z,0.00
2019-05-23T01:07:25.287Z,0.00
2019-05-23T01:09:18.304Z,0.00
2019-05-23T01:10:18.629Z,0.00
2019-05-23T01:12:11.307Z,0.00
2019-05-23T01:13:11.364Z,0.00
2019-05-23T01:15:04.365Z,0.00
2019-05-23T01:16:04.472Z,0.00
2019-05-23T01:17:57.412Z,0.00
2019-05-23T01:18:57.442Z,0.00
2019-05-23T01:20:50.423Z,0.00
2019-05-23T01:21:50.484Z,0.00
2019-05-23T01:23:43.493Z,0.00
2019-05-23T01:24:43.530Z,0.00
2019-05-23T01:26:36.508Z,0.00
2019-05-23T01:27:36.565Z,0.00
2019-05-23T01:29:37.471Z,0.00
2019-05-23T01:30:29.609Z,0.00
2019-05-23T01:32:22.591Z,0.00
2019-05-23T01:33:22.649Z,0.00
2019-05-23T01:35:15.666Z,0.00
2019-05-23T01:36:15.685Z,0.00
2019-05-23T01:38:08.684Z,0.00
2019-05-23T01:39:08.724Z,0.00
2019-05-23T01:41:01.715Z,0.00
2019-05-23T01:42:01.770Z,0.00
2019-05-23T01:43:54.782Z,0.00
2019-05-23T01:44:54.811Z,0.00
2019-05-23T01:46:47.790Z,0.00
2019-05-23T01:47:47.855Z,0.00
2019-05-23T01:49:40.877Z,0.00
2019-05-23T01:50:41.159Z,0.00
2019-05-23T01:52:33.866Z,0.00
2019-05-23T01:53:33.927Z,0.00
2019-05-23T01:55:26.936Z,0.00
2019-05-23T01:56:26.971Z,0.00
2019-05-23T01:58:19.984Z,0.00
2019-05-23T01:59:20.011Z,0.00
2019-05-23T02:01:12.992Z,0.00
2019-05-23T02:02:13.052Z,0.00
2019-05-23T02:04:06.046Z,0.00
2019-05-23T02:05:06.086Z,0.00
2019-05-23T02:06:59.091Z,0.00
2019-05-23T02:07:59.122Z,0.00
2019-05-23T02:09:52.104Z,0.00
2019-05-23T02:10:52.456Z,0.00
2019-05-23T02:12:45.158Z,0.00
2019-05-23T02:13:45.200Z,0.00
2019-05-23T02:15:38.200Z,0.00
2019-05-23T02:16:38.238Z,0.00
2019-05-23T02:18:31.247Z,0.00
2019-05-23T02:19:31.284Z,0.00
2019-05-23T02:21:24.258Z,0.00
2019-05-23T02:22:24.313Z,0.00
2019-05-23T02:24:17.321Z,0.00
2019-05-23T02:25:17.355Z,0.00
2019-05-23T02:27:10.337Z,0.00
2019-05-23T02:28:10.395Z,0.00
2019-05-23T02:30:03.410Z,0.00
2019-05-23T02:31:03.445Z,0.00
2019-05-23T02:32:56.447Z,0.00
2019-05-23T02:33:56.475Z,0.00
2019-05-23T02:35:49.456Z,0.00
2019-05-23T02:36:49.515Z,0.00
2019-05-23T02:38:42.528Z,0.00
2019-05-23T02:39:42.553Z,0.00
2019-05-23T02:41:35.533Z,0.00
2019-05-23T02:42:35.590Z,0.00
2019-05-23T02:44:28.605Z,0.00
2019-05-23T02:45:28.634Z,0.00
2019-05-23T02:47:21.619Z,0.00
2019-05-23T02:48:21.795Z,0.00
2019-05-23T02:50:14.677Z,4.00
2019-05-23T02:51:14.717Z,4.00
2019-05-23T02:53:07.692Z,4.00
2019-05-23T02:54:07.749Z,4.00
2019-05-23T02:56:00.744Z,8.00
2019-05-23T02:57:00.790Z,4.00
2019-05-23T02:58:53.812Z,8.00
2019-05-23T02:59:53.870Z,8.00
2019-05-23T03:01:46.866Z,12.00
2019-05-23T03:02:46.900Z,12.00
2019-05-23T03:04:39.883Z,16.00
2019-05-23T03:05:39.938Z,16.00
2019-05-23T03:07:32.942Z,24.00
2019-05-23T03:08:32.975Z,24.00
2019-05-23T03:10:25.976Z,32.00
2019-05-23T03:11:26.015Z,36.00
2019-05-23T03:13:19.023Z,44.00
2019-05-23T03:14:19.117Z,44.00
2019-05-23T03:16:12.028Z,56.00
2019-05-23T03:17:12.086Z,60.00
2019-05-23T03:19:05.084Z,72.00
2019-05-23T03:20:05.124Z,80.00
2019-05-23T03:21:58.105Z,96.00
2019-05-23T03:22:58.164Z,104.00
2019-05-23T03:24:51.158Z,120.00
2019-05-23T03:25:51.198Z,128.00
2019-05-23T03:27:44.192Z,152.00
2019-05-23T03:28:44.235Z,168.00
2019-05-23T03:30:37.229Z,200.00
2019-05-23T03:31:37.269Z,216.00
2019-05-23T03:33:30.271Z,252.00
2019-05-23T03:34:30.310Z,276.00
2019-05-23T03:36:23.297Z,320.00
2019-05-23T03:37:23.347Z,348.00
2019-05-23T03:39:16.364Z,400.00
2019-05-23T03:40:16.391Z,432.00
2019-05-23T03:42:09.390Z,492.00
2019-05-23T03:43:09.429Z,524.00
2019-05-23T03:45:02.426Z,588.00
2019-05-23T03:46:02.464Z,624.00
2019-05-23T03:47:55.481Z,692.00
2019-05-23T03:48:55.504Z,732.00
2019-05-23T03:50:48.483Z,808.00
2019-05-23T03:51:48.541Z,844.00
2019-05-23T03:53:41.541Z,916.00
2019-05-23T03:54:41.582Z,956.00
2019-05-23T03:56:34.566Z,1032.00
2019-05-23T03:57:34.621Z,1076.00
2019-05-23T03:59:27.641Z,1152.00
2019-05-23T04:00:27.656Z,1188.00
2019-05-23T04:02:20.667Z,1244.00
2019-05-23T04:03:20.707Z,1276.00
2019-05-23T04:05:13.707Z,1312.00
2019-05-23T04:06:13.739Z,1324.00
2019-05-23T04:08:06.715Z,1360.00
2019-05-23T04:09:06.775Z,1404.00
2019-05-23T04:10:59.773Z,1496.00
2019-05-23T04:11:59.815Z,1536.00
2019-05-23T04:13:52.814Z,1608.00
2019-05-23T04:14:52.859Z,1648.00
2019-05-23T04:16:45.846Z,1708.00
2019-05-23T04:17:45.902Z,1728.00
2019-05-23T04:19:38.899Z,1740.00
2019-05-23T04:20:38.939Z,1736.00
2019-05-23T04:22:31.923Z,1828.00
2019-05-23T04:23:31.972Z,1892.00
2019-05-23T04:25:24.983Z,1900.00
2019-05-23T04:26:25.015Z,1864.00
2019-05-23T04:28:17.993Z,1784.00
2019-05-23T04:29:18.049Z,1760.00
2019-05-23T04:31:13.129Z,1748.00
2019-05-23T04:32:11.086Z,1772.00
2019-05-23T04:34:04.068Z,1876.00
2019-05-23T04:35:04.194Z,1936.00
2019-05-23T04:36:57.212Z,2000.00
2019-05-23T04:37:57.162Z,2016.00
2019-05-23T04:39:50.144Z,2076.00
2019-05-23T04:40:50.209Z,2128.00
2019-05-23T04:42:43.211Z,2216.00
2019-05-23T04:43:43.240Z,2256.00
2019-05-23T04:45:36.243Z,2320.00
2019-05-23T04:46:36.281Z,2356.00
2019-05-23T04:48:29.292Z,2452.00
2019-05-23T04:49:29.329Z,2544.00
2019-05-23T04:51:22.307Z,2784.00
2019-05-23T04:52:22.387Z,2820.00
2019-05-23T04:54:15.361Z,2888.00
2019-05-23T04:55:15.457Z,2932.00
2019-05-23T04:57:08.914Z,3008.00
2019-05-23T04:58:08.946Z,3032.00
2019-05-23T05:00:02.206Z,3092.00
2019-05-23T05:01:01.991Z,3120.00
2019-05-23T05:02:54.978Z,3196.00
2019-05-23T05:03:55.037Z,3248.00
2019-05-23T05:05:48.049Z,3400.00
2019-05-23T05:06:48.075Z,3500.00
2019-05-23T05:08:41.068Z,3628.00
2019-05-23T05:09:41.114Z,3664.00
2019-05-23T05:11:34.112Z,3776.00
2019-05-23T05:12:34.151Z,3812.00
2019-05-23T05:14:27.171Z,3864.00
2019-05-23T05:15:27.192Z,3880.00
2019-05-23T05:17:20.176Z,3944.00
2019-05-23T05:18:20.234Z,3980.00
2019-05-23T05:20:13.236Z,4032.00
2019-05-23T05:21:13.273Z,4072.00
2019-05-23T05:23:06.282Z,4164.00
2019-05-23T05:24:06.339Z,4224.00
2019-05-23T05:25:59.303Z,4328.00
2019-05-23T05:26:59.359Z,4392.00
2019-05-23T05:28:52.365Z,4500.00
2019-05-23T05:29:52.398Z,4568.00
2019-05-23T05:31:45.405Z,4712.00
2019-05-23T05:32:45.864Z,4744.00
2019-05-23T05:34:38.445Z,4764.00
2019-05-23T05:35:38.484Z,4796.00
2019-05-23T05:37:31.490Z,4724.00
2019-05-23T05:38:31.530Z,4716.00
2019-05-23T05:40:24.522Z,5040.00
2019-05-23T05:41:24.565Z,5276.00
2019-05-23T05:43:17.570Z,5548.00
2019-05-23T05:44:17.614Z,5660.00
2019-05-23T05:46:10.594Z,5832.00
2019-05-23T05:47:10.656Z,5912.00
2019-05-23T05:49:03.673Z,6040.00
2019-05-23T05:50:03.709Z,6108.00
2019-05-23T05:51:56.704Z,6220.00
2019-05-23T05:52:56.747Z,6264.00
2019-05-23T05:54:49.754Z,6500.00
2019-05-23T05:55:49.786Z,6616.00
2019-05-23T05:57:43.282Z,6720.00
2019-05-23T05:58:43.340Z,6872.00
2019-05-23T06:00:36.341Z,7156.00
2019-05-23T06:01:36.383Z,7160.00
2019-05-23T06:03:29.387Z,7456.00
2019-05-23T06:04:29.423Z,8096.00
2019-05-23T06:06:22.409Z,8876.00
2019-05-23T06:07:22.474Z,9336.00
2019-05-23T06:09:15.472Z,10340.00
2019-05-23T06:10:15.519Z,10964.00
2019-05-23T06:12:08.507Z,11880.00
2019-05-23T06:13:08.554Z,12552.00
2019-05-23T06:15:02.143Z,16384.00
2019-05-23T06:16:01.599Z,18272.00
2019-05-23T06:17:54.597Z,19072.00
2019-05-23T06:18:54.642Z,19168.00
2019-05-23T06:20:47.646Z,19264.00
2019-05-23T06:21:47.687Z,19104.00
2019-05-23T06:23:40.693Z,19552.00
2019-05-23T06:24:48.387Z,19584.00
2019-05-23T06:26:33.739Z,19616.00
2019-05-23T06:27:33.790Z,19840.00
2019-05-23T06:29:26.796Z,20352.00
2019-05-23T06:30:26.849Z,20384.00
2019-05-23T06:32:19.847Z,20864.00
2019-05-23T06:33:23.652Z,21440.00
2019-05-23T06:35:12.924Z,22944.00
2019-05-23T06:36:12.974Z,23936.00
2019-05-23T06:38:05.974Z,25504.00
2019-05-23T06:39:06.043Z,26144.00
2019-05-23T06:40:59.062Z,28512.00
2019-05-23T06:41:59.110Z,30080.00
2019-05-23T06:43:52.138Z,33120.00
2019-05-23T06:44:52.185Z,34624.00
2019-05-23T06:46:45.203Z,39360.00
2019-05-23T06:47:45.265Z,41888.00
2019-05-23T06:49:38.295Z,46400.00
2019-05-23T06:50:38.348Z,49056.00
2019-05-23T06:52:31.367Z,56064.00
2019-05-23T06:53:31.419Z,62016.00
2019-05-23T06:55:24.434Z,71392.00
2019-05-23T06:56:24.494Z,80352.00
2019-05-23T06:58:17.515Z,85184.00
2019-05-23T06:59:17.574Z,80928.00
2019-05-23T07:01:10.606Z,73440.00
2019-05-23T07:02:10.656Z,68768.00
2019-05-23T07:04:03.664Z,61184.00
2019-05-23T07:05:03.730Z,57568.00
2019-05-23T07:06:56.760Z,51744.00
2019-05-23T07:07:56.868Z,48704.00
2019-05-23T07:09:49.835Z,44224.00
2019-05-23T07:10:49.890Z,43520.00
2019-05-23T07:12:42.915Z,42272.00
2019-05-23T07:13:42.970Z,41728.00
2019-05-23T07:15:35.994Z,43200.00
2019-05-23T07:16:36.048Z,43648.00
2019-05-23T07:18:29.071Z,44704.00
2019-05-23T07:19:29.130Z,45856.00
2019-05-23T07:21:22.172Z,48192.00
2019-05-23T07:22:22.224Z,47904.00
2019-05-23T07:24:15.242Z,50848.00
2019-05-23T07:25:15.314Z,51744.00
2019-05-23T07:27:08.393Z,52352.00
2019-05-23T07:28:08.453Z,52672.00
2019-05-23T07:30:01.767Z,51296.00
2019-05-23T07:31:01.539Z,52320.00
2019-05-23T07:32:54.576Z,52224.00
2019-05-23T07:34:01.834Z,52832.00
2019-05-23T07:35:47.636Z,56256.00
2019-05-23T07:36:47.714Z,56832.00
2019-05-23T07:38:40.744Z,59136.00
2019-05-23T07:39:40.804Z,57824.00
2019-05-23T07:41:33.838Z,55936.00
2019-05-23T07:42:33.894Z,55712.00
2019-05-23T07:44:26.932Z,52928.00
2019-05-23T07:45:26.987Z,52352.00
2019-05-23T07:47:20.043Z,53120.00
2019-05-23T07:48:20.095Z,53152.00
2019-05-23T07:50:13.102Z,53216.00
2019-05-23T07:51:13.195Z,52544.00
2019-05-23T07:53:06.219Z,52128.00
2019-05-23T07:54:06.275Z,52416.00
2019-05-23T07:55:59.326Z,53056.00
2019-05-23T07:56:59.421Z,53472.00
2019-05-23T07:58:52.381Z,54688.00
2019-05-23T07:59:52.452Z,54528.00
2019-05-23T08:01:45.495Z,54368.00
2019-05-23T08:02:45.554Z,54848.00
2019-05-23T08:04:38.587Z,53696.00
2019-05-23T08:05:38.645Z,53792.00
2019-05-23T08:07:32.872Z,53344.00
2019-05-23T08:08:31.737Z,53824.00
2019-05-23T08:10:33.685Z,53568.00
2019-05-23T08:11:24.835Z,54176.00
2019-05-23T08:13:17.859Z,53568.00
2019-05-23T08:14:17.932Z,53664.00
2019-05-23T08:16:10.971Z,55360.00
2019-05-23T08:17:11.044Z,66080.00
2019-05-23T08:19:04.063Z,128128.00
2019-05-23T08:20:04.144Z,118944.00
2019-05-23T08:21:57.174Z,112384.00
2019-05-23T08:22:57.241Z,110976.00
2019-05-23T08:24:51.358Z,108320.00
2019-05-23T08:25:50.353Z,111648.00
2019-05-23T08:27:43.399Z,112352.00
2019-05-23T08:29:00.941Z,113664.00
2019-05-23T08:30:36.495Z,111296.00
2019-05-23T08:31:36.553Z,111104.00
2019-05-23T08:33:29.604Z,99136.00
2019-05-23T08:34:41.506Z,109248.00
2019-05-23T08:36:22.696Z,110240.00
2019-05-23T08:37:22.761Z,108800.00
2019-05-23T08:39:15.809Z,99840.00
2019-05-23T08:40:15.878Z,98368.00
2019-05-23T08:42:08.902Z,99296.00
2019-05-23T08:43:09.036Z,100288.00
2019-05-23T08:45:02.058Z,105408.00
2019-05-23T08:46:02.281Z,101280.00
2019-05-23T08:47:55.115Z,108768.00
2019-05-23T08:48:55.197Z,106816.00
2019-05-23T08:50:51.358Z,106464.00
2019-05-23T08:51:48.307Z,102496.00
2019-05-23T08:53:41.358Z,93920.00
2019-05-23T08:54:41.410Z,92768.00
2019-05-23T08:56:34.435Z,85664.00
2019-05-23T08:57:34.574Z,84576.00
2019-05-23T08:59:27.566Z,90240.00
2019-05-23T09:00:27.658Z,89792.00
2019-05-23T09:02:20.658Z,89376.00
2019-05-23T09:03:20.725Z,88032.00
2019-05-23T09:05:13.786Z,92736.00
2019-05-23T09:06:13.839Z,88448.00
2019-05-23T09:08:06.887Z,87392.00
2019-05-23T09:09:27.809Z,86720.00
2019-05-23T09:10:59.973Z,90528.00
2019-05-23T09:12:00.051Z,90144.00
2019-05-23T09:13:53.088Z,86624.00
2019-05-23T09:14:53.149Z,81920.00
2019-05-23T09:16:46.204Z,80288.00
2019-05-23T09:17:53.146Z,80896.00
2019-05-23T09:19:39.297Z,76896.00
2019-05-23T09:20:39.358Z,78496.00
2019-05-23T09:22:32.388Z,74304.00
2019-05-23T09:23:32.469Z,79296.00
2019-05-23T09:25:25.513Z,80672.00
2019-05-23T09:26:25.563Z,52960.00
2019-05-23T09:28:18.603Z,9720.00
2019-05-23T09:29:18.668Z,9220.00
2019-05-23T09:31:11.687Z,9184.00
2019-05-23T09:32:11.767Z,9508.00
2019-05-23T09:34:04.803Z,9708.00
2019-05-23T09:35:19.631Z,9528.00
2019-05-23T09:37:00.263Z,9212.00
2019-05-23T09:37:57.950Z,9052.00
2019-05-23T09:39:50.997Z,8804.00
2019-05-23T09:40:51.053Z,8872.00
2019-05-23T09:42:44.064Z,9308.00
2019-05-23T09:43:44.120Z,9352.00
2019-05-23T09:45:37.131Z,10540.00
2019-05-23T09:46:37.204Z,11376.00
2019-05-23T09:48:30.233Z,10748.00
2019-05-23T09:49:30.289Z,10636.00
2019-05-23T09:51:23.342Z,9520.00
2019-05-23T09:52:23.370Z,9744.00
2019-05-23T09:54:16.461Z,8900.00
2019-05-23T09:55:16.473Z,8588.00
2019-05-23T09:57:09.455Z,9108.00
2019-05-23T09:58:09.523Z,8668.00
2019-05-23T10:00:02.658Z,10732.00
2019-05-23T10:01:02.602Z,11424.00
2019-05-23T10:02:55.605Z,11164.00
2019-05-23T10:03:55.677Z,10292.00
2019-05-23T10:05:48.695Z,10092.00
2019-05-23T10:06:48.767Z,10012.00
2019-05-23T10:08:41.790Z,9812.00
2019-05-23T10:09:41.832Z,9676.00
2019-05-23T10:11:34.869Z,9728.00
2019-05-23T10:12:34.902Z,10348.00
2019-05-23T10:14:27.901Z,10684.00
2019-05-23T10:15:28.002Z,10340.00
2019-05-23T10:17:20.991Z,10224.00
2019-05-23T10:18:21.045Z,10104.00
2019-05-23T10:20:14.081Z,9996.00
2019-05-23T10:21:14.111Z,10136.00
2019-05-23T10:23:07.155Z,10068.00
2019-05-23T10:24:07.175Z,10188.00
2019-05-23T10:26:00.249Z,10344.00
2019-05-23T10:27:00.250Z,10804.00
2019-05-23T10:28:53.252Z,11140.00
2019-05-23T10:29:53.317Z,10716.00
2019-05-23T10:31:46.335Z,9924.00
2019-05-23T10:32:46.391Z,9720.00
2019-05-23T10:34:39.392Z,9512.00
2019-05-23T10:35:39.460Z,9444.00
2019-05-23T10:37:32.478Z,9416.00
2019-05-23T10:38:32.524Z,9328.00
2019-05-23T10:40:25.532Z,9188.00
2019-05-23T10:41:25.594Z,9356.00
2019-05-23T10:43:18.611Z,9724.00
2019-05-23T10:44:18.666Z,9876.00
2019-05-23T10:46:11.684Z,10024.00
2019-05-23T10:47:11.733Z,10096.00
2019-05-23T10:49:04.757Z,9784.00
2019-05-23T10:50:08.462Z,9492.00
2019-05-23T10:51:57.812Z,8708.00
2019-05-23T10:52:57.873Z,8580.00
2019-05-23T10:54:50.896Z,8512.00
2019-05-23T10:55:50.972Z,8388.00
2019-05-23T10:57:44.459Z,8696.00
2019-05-23T10:58:44.524Z,9036.00
2019-05-23T11:00:37.536Z,8752.00
2019-05-23T11:01:37.591Z,8516.00
2019-05-23T11:03:30.594Z,8360.00
2019-05-23T11:04:30.658Z,8204.00
2019-05-23T11:06:23.680Z,8076.00
2019-05-23T11:07:23.728Z,8268.00
2019-05-23T11:09:16.748Z,8212.00
2019-05-23T11:10:16.796Z,7884.00
2019-05-23T11:12:09.844Z,7272.00
2019-05-23T11:13:09.875Z,7200.00
2019-05-23T11:15:03.381Z,7112.00
2019-05-23T11:16:03.442Z,7216.00
2019-05-23T11:17:56.996Z,7460.00
2019-05-23T11:18:56.514Z,7532.00
2019-05-23T11:20:49.535Z,7956.00
2019-05-23T11:21:49.625Z,8008.00
2019-05-23T11:23:42.592Z,7364.00
2019-05-23T11:24:42.690Z,7336.00
2019-05-23T11:26:35.654Z,7592.00
2019-05-23T11:27:35.711Z,7816.00
2019-05-23T11:29:28.728Z,7988.00
2019-05-23T11:30:28.776Z,7656.00
2019-05-23T11:32:21.777Z,7580.00
2019-05-23T11:33:21.842Z,8208.00
2019-05-23T11:35:14.861Z,8552.00
2019-05-23T11:36:14.914Z,8208.00
2019-05-23T11:38:07.931Z,8208.00
2019-05-23T11:39:07.976Z,8400.00
2019-05-23T11:41:00.996Z,8300.00
2019-05-23T11:42:01.043Z,8000.00
2019-05-23T11:43:54.060Z,7820.00
2019-05-23T11:44:54.106Z,7700.00
2019-05-23T11:46:47.135Z,7036.00
2019-05-23T11:47:47.173Z,8096.00
2019-05-23T11:49:40.344Z,10424.00
2019-05-23T11:50:40.261Z,10896.00
2019-05-23T11:52:33.272Z,9944.00
2019-05-23T11:53:33.326Z,9524.00
2019-05-23T11:55:26.347Z,10496.00
2019-05-23T11:56:26.384Z,11228.00
2019-05-23T11:58:19.436Z,11472.00
2019-05-23T11:59:19.459Z,11204.00
2019-05-23T12:01:20.674Z,11480.00
2019-05-23T12:02:12.518Z,11756.00
2019-05-23T12:04:05.519Z,11792.00
2019-05-23T12:05:05.582Z,11676.00
2019-05-23T12:06:58.611Z,10700.00
2019-05-23T12:07:58.645Z,10264.00
2019-05-23T12:09:51.655Z,9920.00
2019-05-23T12:10:51.712Z,9948.00
2019-05-23T12:12:44.731Z,11148.00
2019-05-23T12:13:44.782Z,11516.00
2019-05-23T12:15:38.311Z,11848.00
2019-05-23T12:16:38.362Z,12276.00
2019-05-23T12:18:31.361Z,13368.00
2019-05-23T12:19:31.429Z,12884.00
2019-05-23T12:21:24.443Z,11964.00
2019-05-23T12:22:24.491Z,11320.00
2019-05-23T12:24:17.496Z,8880.00
2019-05-23T12:25:22.596Z,8496.00
2019-05-23T12:27:10.585Z,9208.00
2019-05-23T12:28:10.630Z,9548.00
2019-05-23T12:30:03.632Z,9612.00
2019-05-23T12:31:03.702Z,10180.00
2019-05-23T12:32:56.718Z,9480.00
2019-05-23T12:33:56.765Z,9012.00
2019-05-23T12:35:49.768Z,8556.00
2019-05-23T12:36:49.838Z,8644.00
2019-05-23T12:38:42.879Z,9576.00
2019-05-23T12:39:42.903Z,10652.00
2019-05-23T12:41:35.929Z,12004.00
2019-05-23T12:42:35.974Z,12036.00
2019-05-23T12:44:28.998Z,11444.00
2019-05-23T12:45:29.037Z,11056.00
2019-05-23T12:47:22.039Z,9988.00
2019-05-23T12:48:22.108Z,9660.00
2019-05-23T12:50:15.125Z,9632.00
2019-05-23T12:51:15.172Z,9500.00
2019-05-23T12:53:08.176Z,9412.00
2019-05-23T12:54:08.260Z,9576.00
2019-05-23T12:56:01.266Z,9952.00
2019-05-23T12:57:01.306Z,10652.00
2019-05-23T12:58:54.308Z,11336.00
2019-05-23T12:59:54.369Z,11472.00
2019-05-23T13:01:47.396Z,11544.00
2019-05-23T13:02:47.442Z,10772.00
2019-05-23T13:04:40.453Z,10352.00
2019-05-23T13:05:40.509Z,10364.00
2019-05-23T13:07:36.623Z,10072.00
2019-05-23T13:08:33.572Z,10468.00
2019-05-23T13:10:26.605Z,11208.00
2019-05-23T13:11:26.675Z,11744.00
2019-05-23T13:13:19.641Z,11564.00
2019-05-23T13:14:19.724Z,10940.00
2019-05-23T13:16:12.725Z,10488.00
2019-05-23T13:17:12.773Z,10712.00
2019-05-23T13:19:05.796Z,10936.00
2019-05-23T13:20:05.845Z,11220.00
2019-05-23T13:21:58.860Z,11932.00
2019-05-23T13:22:58.957Z,11748.00
2019-05-23T13:24:53.463Z,10632.00
2019-05-23T13:25:52.013Z,10028.00
2019-05-23T13:27:44.976Z,9372.00
2019-05-23T13:28:45.042Z,9264.00
2019-05-23T13:30:38.067Z,10284.00
2019-05-23T13:31:38.107Z,10440.00
2019-05-23T13:33:31.110Z,10288.00
2019-05-23T13:34:31.174Z,10212.00
2019-05-23T13:36:24.191Z,9388.00
2019-05-23T13:37:24.242Z,9068.00
2019-05-23T13:39:17.267Z,10508.00
2019-05-23T13:40:17.308Z,10472.00
2019-05-23T13:42:10.328Z,10248.00
2019-05-23T13:43:10.383Z,10732.00
2019-05-23T13:45:03.404Z,11548.00
2019-05-23T13:46:03.447Z,11704.00
2019-05-23T13:47:56.469Z,10424.00
2019-05-23T13:48:56.510Z,9504.00
2019-05-23T13:50:49.524Z,9248.00
2019-05-23T13:51:49.578Z,9184.00
2019-05-23T13:53:42.574Z,8892.00
2019-05-23T13:54:42.647Z,8376.00
2019-05-23T13:56:35.755Z,7776.00
2019-05-23T13:57:35.739Z,7604.00
2019-05-23T13:59:28.731Z,7736.00
2019-05-23T14:00:28.778Z,7964.00
2019-05-23T14:02:21.794Z,7668.00
2019-05-23T14:03:21.850Z,7760.00
2019-05-23T14:05:18.956Z,8212.00
2019-05-23T14:06:15.426Z,8784.00
2019-05-23T14:08:12.795Z,9080.00
2019-05-23T14:09:08.479Z,8584.00
2019-05-23T14:11:01.993Z,8316.00
2019-05-23T14:12:21.767Z,8416.00
2019-05-23T14:14:00.241Z,9772.00
2019-05-23T14:14:55.121Z,10096.00
2019-05-23T14:16:48.134Z,9568.00
2019-05-23T14:17:48.186Z,8844.00
2019-05-23T14:19:41.203Z,7972.00
2019-05-23T14:20:41.251Z,7612.00
2019-05-23T14:22:34.252Z,7448.00
2019-05-23T14:23:34.315Z,7588.00
2019-05-23T14:25:27.331Z,7996.00
2019-05-23T14:26:27.378Z,8076.00
2019-05-23T14:28:20.410Z,7228.00
2019-05-23T14:29:20.466Z,6816.00
2019-05-23T14:31:13.496Z,6436.00
2019-05-23T14:32:13.582Z,6356.00
2019-05-23T14:34:06.610Z,6448.00
2019-05-23T14:35:06.600Z,6576.00
2019-05-23T14:36:59.658Z,6844.00
2019-05-23T14:37:59.668Z,7160.00
2019-05-23T14:39:52.684Z,7700.00
2019-05-23T14:40:52.746Z,8004.00
2019-05-23T14:42:45.808Z,8348.00
2019-05-23T14:43:45.802Z,8276.00
2019-05-23T14:45:38.820Z,8324.00
2019-05-23T14:46:38.873Z,8428.00
2019-05-23T14:48:31.887Z,7692.00
2019-05-23T14:49:31.934Z,7088.00
2019-05-23T14:51:24.959Z,6596.00
2019-05-23T14:52:25.001Z,6400.00
2019-05-23T14:54:18.020Z,6132.00
2019-05-23T14:55:18.065Z,6076.00
2019-05-23T14:57:11.214Z,6176.00
2019-05-23T14:58:11.135Z,6492.00
2019-05-23T15:00:04.155Z,6768.00
2019-05-23T15:01:04.199Z,6844.00
2019-05-23T15:02:57.192Z,7340.00
2019-05-23T15:03:57.257Z,7468.00
2019-05-23T15:05:50.277Z,7528.00
2019-05-23T15:06:50.321Z,7620.00
2019-05-23T15:08:51.200Z,7728.00
2019-05-23T15:09:43.383Z,7900.00
2019-05-23T15:11:36.398Z,8600.00
2019-05-23T15:12:36.446Z,8804.00
2019-05-23T15:14:29.487Z,8564.00
2019-05-23T15:15:29.509Z,8432.00
2019-05-23T15:17:22.527Z,8008.00
2019-05-23T15:18:22.570Z,7844.00
2019-05-23T15:20:15.605Z,7568.00
2019-05-23T15:21:15.637Z,7316.00
2019-05-23T15:23:08.679Z,6876.00
2019-05-23T15:24:08.700Z,6712.00
2019-05-23T15:26:01.701Z,6548.00
2019-05-23T15:27:01.764Z,6712.00
2019-05-23T15:28:54.787Z,7092.00
2019-05-23T15:29:54.830Z,7308.00
2019-05-23T15:32:01.887Z,7724.00
2019-05-23T15:32:47.895Z,7760.00
2019-05-23T15:34:40.913Z,7440.00
2019-05-23T15:35:40.981Z,7212.00
2019-05-23T15:37:33.971Z,6736.00
2019-05-23T15:38:34.037Z,6440.00
2019-05-23T15:40:27.085Z,5760.00
2019-05-23T15:41:27.119Z,5500.00
2019-05-23T15:43:20.098Z,5184.00
2019-05-23T15:44:26.968Z,5148.00
2019-05-23T15:46:13.198Z,5100.00
2019-05-23T15:47:13.277Z,5036.00
2019-05-23T15:49:06.260Z,5080.00
2019-05-23T15:50:10.913Z,5004.00
2019-05-23T15:51:59.379Z,4660.00
2019-05-23T15:52:59.383Z,4612.00
2019-05-23T15:54:52.397Z,4624.00
2019-05-23T15:55:52.446Z,4740.00
2019-05-23T15:57:45.449Z,4892.00
2019-05-23T15:58:45.517Z,4824.00
2019-05-23T16:00:38.543Z,4548.00
2019-05-23T16:01:38.592Z,4356.00
2019-05-23T16:03:31.808Z,4068.00
2019-05-23T16:04:31.666Z,4024.00
2019-05-23T16:06:24.694Z,4424.00
2019-05-23T16:07:24.727Z,4612.00
2019-05-23T16:09:29.248Z,4580.00
2019-05-23T16:10:17.793Z,4444.00
2019-05-23T16:12:10.810Z,4624.00
2019-05-23T16:13:10.856Z,4880.00
2019-05-23T16:15:03.870Z,5292.00
2019-05-23T16:16:03.924Z,5440.00
2019-05-23T16:17:56.942Z,5572.00
2019-05-23T16:18:56.982Z,5400.00
2019-05-23T16:20:49.984Z,5080.00
2019-05-23T16:21:50.048Z,4856.00
2019-05-23T16:23:43.066Z,4652.00
2019-05-23T16:24:43.112Z,4748.00
2019-05-23T16:26:36.121Z,4784.00
2019-05-23T16:27:36.195Z,4892.00
2019-05-23T16:29:29.211Z,5104.00
2019-05-23T16:30:29.243Z,5156.00
2019-05-23T16:32:22.258Z,5124.00
2019-05-23T16:33:22.307Z,4968.00
2019-05-23T16:35:15.334Z,4952.00
2019-05-23T16:36:15.380Z,4964.00
2019-05-23T16:38:08.415Z,4828.00
2019-05-23T16:39:08.448Z,4672.00
2019-05-23T16:41:01.470Z,4280.00
2019-05-23T16:42:01.509Z,4056.00
2019-05-23T16:43:54.512Z,3776.00
2019-05-23T16:44:54.577Z,3720.00
2019-05-23T16:46:47.590Z,3744.00
2019-05-23T16:47:47.633Z,3892.00
2019-05-23T16:49:40.634Z,4268.00
2019-05-23T16:50:40.700Z,4424.00
2019-05-23T16:52:34.245Z,4508.00
2019-05-23T16:53:35.976Z,4492.00
2019-05-23T16:55:27.262Z,4504.00
2019-05-23T16:56:27.423Z,4536.00
2019-05-23T16:58:20.359Z,4648.00
2019-05-23T16:59:20.394Z,4696.00
2019-05-23T17:01:23.568Z,4728.00
2019-05-23T17:02:13.451Z,4712.00
2019-05-23T17:04:06.517Z,4572.00
2019-05-23T17:05:10.514Z,4492.00
2019-05-23T17:06:59.513Z,4544.00
2019-05-23T17:08:03.820Z,4664.00
2019-05-23T17:10:07.781Z,4908.00
2019-05-23T17:10:52.639Z,4936.00
2019-05-23T17:12:45.653Z,4856.00
2019-05-23T17:13:45.707Z,4812.00
2019-05-23T17:15:38.708Z,4624.00
2019-05-23T17:16:38.762Z,4512.00
2019-05-23T17:18:31.774Z,4376.00
2019-05-23T17:19:31.826Z,4356.00
2019-05-23T17:21:24.889Z,4348.00
2019-05-23T17:22:24.912Z,4352.00
2019-05-23T17:24:17.983Z,4376.00
2019-05-23T17:25:17.988Z,4384.00
2019-05-23T17:27:11.057Z,4296.00
2019-05-23T17:28:11.077Z,4244.00
2019-05-23T17:30:08.015Z,4136.00
2019-05-23T17:31:04.107Z,4088.00
2019-05-23T17:32:57.119Z,4056.00
2019-05-23T17:33:57.163Z,4040.00